Costa Atlantica — IBLQ — position and weather

sailwx.info

Track history (hours):
 
Tides and Currents Weather Stations Pressure Air Temp Water Temp Dewpoint Dewpoint Depression Visibility Wind Speed Wind Dir Waves Ship Positions

Costa Atlantica (Italy)

Last reported at 2018-Dec-09 11:12 UTC. Time now 2018-Dec-12 02:37 UTC.
Position N 23°22' E 117°55'.

Length 292 m; draft 8 m.

Type: Ship. MMSI: 247595017.

Date/timePositionNaut miles runAvg speedWind from/ knotsBaromVisibWave heightAir tempDewpointWater temp
2018-Dec-09 11:12N 23°22' E 117°55'4317.6
2018-Dec-09 08:47N 23°57' E 118°20'618.5
2018-Dec-09 08:29N 24°02' E 118°23'816.7
2018-Dec-09 08:00N 24°10' E 118°20'817.1
2018-Dec-09 07:30N 24°16' E 118°14'815.2
2018-Dec-09 07:00N 24°22' E 118°08'713.9
2018-Dec-09 06:30N 24°27' E 118°03'3 6.1
2018-Dec-09 06:00N 24°29' E 118°04'0 0.0
2018-Dec-09 05:30N 24°29' E 118°04'0 0.0
2018-Dec-09 05:00N 24°29' E 118°04'0 0.0
2018-Dec-09 04:30N 24°29' E 118°04'0 0.0
2018-Dec-09 04:00N 24°29' E 118°04'0 0.0
2018-Dec-09 03:30N 24°29' E 118°04'0 0.0
2018-Dec-09 03:00N 24°29' E 118°04'0 0.0
2018-Dec-09 02:30N 24°29' E 118°04'0 0.0
2018-Dec-09 02:00N 24°29' E 118°04'0 0.0
2018-Dec-09 01:30N 24°29' E 118°04'0 0.0
2018-Dec-09 01:00N 24°29' E 118°04'0 0.0
2018-Dec-09 00:30N 24°29' E 118°04'0 0.0
2018-Dec-09 00:00N 24°29' E 118°04'0 0.0
2018-Dec-08 23:30N 24°29' E 118°04'0 0.0
2018-Dec-08 23:00N 24°29' E 118°04'0 0.0
2018-Dec-08 22:30N 24°29' E 118°04'1 2.5
2018-Dec-08 22:00N 24°28' E 118°03'510.6
2018-Dec-08 21:31N 24°24' E 118°06'713.4
2018-Dec-08 21:00N 24°19' E 118°12'815.4
2018-Dec-08 20:30N 24°13' E 118°17'612.6
2018-Dec-08 20:00N 24°11' E 118°23'713.6
2018-Dec-08 19:30N 24°12' E 118°31'612.6
2018-Dec-08 19:00N 24°13' E 118°38'712.9
2018-Dec-08 18:28N 24°15' E 118°45'16115.7
2018-Dec-08 08:14N 25°22' E 121°26'615.8
2018-Dec-08 07:53N 25°23' E 121°32'1016.0
2018-Dec-08 07:16N 25°22' E 121°43'616.4
2018-Dec-08 06:56N 25°22' E 121°50'716.5
2018-Dec-08 06:29N 25°21' E 121°58'1016.6
2018-Dec-08 05:54N 25°19' E 122°08'716.5
2018-Dec-08 05:27N 25°18' E 122°16'1018.1
2018-Dec-08 04:56N 25°17' E 122°27'1017.4
2018-Dec-08 04:21N 25°17' E 122°38'30 0.6
2018-Dec-06 05:35N 25°20' E 122°05'320.6
2018-Dec-06 05:25N 25°20' E 122°01'1220.2
2018-Dec-06 04:49N 25°21' E 121°48'720.3
2018-Dec-06 04:28N 25°23' E 121°40'1020.0
2018-Dec-06 03:57N 25°23' E 121°29'1219.3
2018-Dec-06 03:20N 25°20' E 121°16'2318.8
2018-Dec-06 02:09N 25°14' E 120°52'318.5
2018-Dec-06 01:58N 25°13' E 120°48'13818.1
2018-Dec-05 18:21N 24°13' E 118°32'617.8
2018-Dec-05 18:00N 24°11' E 118°25'816.2
2018-Dec-05 17:30N 24°13' E 118°17'817.4
2018-Dec-05 17:01N 24°20' E 118°11'714.2
2018-Dec-05 16:31N 24°25' E 118°05'5 9.1
2018-Dec-05 16:00N 24°29' E 118°04'0 0.5
2018-Dec-05 15:30N 24°29' E 118°04'0 0.0
2018-Dec-05 15:00N 24°29' E 118°04'0 0.0
2018-Dec-05 14:30N 24°29' E 118°04'0 0.0
2018-Dec-05 14:00N 24°29' E 118°04'0 0.0
2018-Dec-05 13:30N 24°29' E 118°04'0 0.0
2018-Dec-05 13:00N 24°29' E 118°04'0 0.0
2018-Dec-05 12:30N 24°29' E 118°04'0 0.0
2018-Dec-05 12:00N 24°29' E 118°04'0 0.0
2018-Dec-05 11:30N 24°29' E 118°04'0 0.0
2018-Dec-05 11:00N 24°29' E 118°04'0 0.0
2018-Dec-05 10:30N 24°29' E 118°04'0 0.0
2018-Dec-05 10:00N 24°29' E 118°04'0 0.0
2018-Dec-05 09:30N 24°29' E 118°04'0 0.0
2018-Dec-05 09:00N 24°29' E 118°04'0 0.7
2018-Dec-05 08:30N 24°29' E 118°04'4 8.8
2018-Dec-05 08:01N 24°25' E 118°05'713.3
2018-Dec-05 07:30N 24°20' E 118°10'816.3
2018-Dec-05 07:00N 24°14' E 118°16'816.8
2018-Dec-05 06:30N 24°08' E 118°22'816.3
2018-Dec-05 05:59N 23°59' E 118°21'5517.1
2018-Dec-05 02:47N 23°16' E 117°45'616.8
2018-Dec-05 02:24N 23°11' E 117°40'68217.9
2018-Dec-03 12:17N 16°07' E 108°12'0 0.1
2018-Dec-03 11:07N 16°07' E 108°13'0 0.0
2018-Dec-03 10:55N 16°07' E 108°13'0 0.0
2018-Dec-03 10:07N 16°07' E 108°13'0 0.0
2018-Dec-03 09:43N 16°07' E 108°13'0 0.0
2018-Dec-03 04:11N 16°07' E 108°13'0 0.8
2018-Dec-03 03:58N 16°07' E 108°12'1 2.1
2018-Dec-03 03:30N 16°08' E 108°12'67817.5
2018-Dec-01 12:49N 23°07' E 117°38'619.7
2018-Dec-01 12:30N 23°11' E 117°43'1019.5
2018-Dec-01 12:00N 23°16' E 117°52'918.8
2018-Dec-01 11:31N 23°22' E 117°60'918.5
2018-Dec-01 11:00N 23°30' E 118°06'919.1
2018-Dec-01 10:31N 23°36' E 118°13'1019.1
2018-Dec-01 10:00N 23°45' E 118°17'1018.9
2018-Dec-01 09:27N 23°55' E 118°22'1017.7
2018-Dec-01 08:55N 24°04' E 118°22'817.2
2018-Dec-01 08:25N 24°12' E 118°19'716.7
2018-Dec-01 08:00N 24°17' E 118°13'714.8
2018-Dec-01 07:30N 24°23' E 118°08'612.3
2018-Dec-01 07:00N 24°27' E 118°03'3 6.0
2018-Dec-01 06:30N 24°29' E 118°04'0 0.0
2018-Dec-01 06:01N 24°29' E 118°04'0 0.0
2018-Dec-01 05:30N 24°29' E 118°04'0 0.0
2018-Dec-01 05:00N 24°29' E 118°04'0 0.0
2018-Dec-01 04:30N 24°29' E 118°04'0 0.0
2018-Dec-01 04:00N 24°29' E 118°04'0 0.0
2018-Dec-01 03:30N 24°29' E 118°04'0 0.0
2018-Dec-01 03:00N 24°29' E 118°04'0 0.0
2018-Dec-01 02:30N 24°29' E 118°04'0 0.0
2018-Dec-01 02:00N 24°29' E 118°04'0 0.0
2018-Dec-01 01:30N 24°29' E 118°04'0 0.0
2018-Dec-01 01:00N 24°29' E 118°04'0 0.0
2018-Dec-01 00:30N 24°29' E 118°04'0 0.0
2018-Dec-01 00:00N 24°29' E 118°04'0 0.0
2018-Nov-30 23:31N 24°29' E 118°04'0 0.0
2018-Nov-30 23:00N 24°29' E 118°04'0 0.0
2018-Nov-30 22:30N 24°29' E 118°04'2 4.1
2018-Nov-30 22:00N 24°28' E 118°03'611.6
2018-Nov-30 21:30N 24°23' E 118°07'714.1
2018-Nov-30 21:01N 24°18' E 118°12'815.0
2018-Nov-30 20:31N 24°13' E 118°18'714.1
2018-Nov-30 20:00N 24°11' E 118°26'714.4
2018-Nov-30 19:31N 24°12' E 118°33'714.1
2018-Nov-30 19:00N 24°13' E 118°41'714.3
2018-Nov-30 18:30N 24°15' E 118°49'814.3
2018-Nov-30 17:58N 24°18' E 118°56'913.9
2018-Nov-30 17:21N 24°23' E 119°04'613.6
2018-Nov-30 16:56N 24°25' E 119°10'13913.2
2018-Nov-30 06:23N 25°23' E 121°29'1120.0
2018-Nov-30 05:50N 25°23' E 121°41'919.3
2018-Nov-30 05:24N 25°23' E 121°51'819.4
2018-Nov-30 04:58N 25°21' E 122°00'1219.4
2018-Nov-30 04:21N 25°18' E 122°13'719.0
2018-Nov-30 04:00N 25°17' E 122°20'1018.6
2018-Nov-30 03:28N 25°17' E 122°31'  
Track history (hours):
 
Tides and Currents Weather Stations Pressure Air Temp Water Temp Dewpoint Dewpoint Depression Visibility Wind Speed Wind Dir Waves Ship Positions

Costa Atlantica (Italy)

Last reported at 2018-Dec-09 11:12 UTC. Time now 2018-Dec-12 02:37 UTC.
Position N 23°22' E 117°55'.

Length 292 m; draft 8 m.

Type: Ship. MMSI: 247595017.

Date/timePositionNaut miles runAvg speedWind from/ knotsBaromVisibWave heightAir tempDewpointWater temp
2018-Dec-09 11:12N 23°22' E 117°55'4317.6
2018-Dec-09 08:47N 23°57' E 118°20'618.5
2018-Dec-09 08:29N 24°02' E 118°23'816.7
2018-Dec-09 08:00N 24°10' E 118°20'817.1
2018-Dec-09 07:30N 24°16' E 118°14'815.2
2018-Dec-09 07:00N 24°22' E 118°08'713.9
2018-Dec-09 06:30N 24°27' E 118°03'3 6.1
2018-Dec-09 06:00N 24°29' E 118°04'0 0.0
2018-Dec-09 05:30N 24°29' E 118°04'0 0.0
2018-Dec-09 05:00N 24°29' E 118°04'0 0.0
2018-Dec-09 04:30N 24°29' E 118°04'0 0.0
2018-Dec-09 04:00N 24°29' E 118°04'0 0.0
2018-Dec-09 03:30N 24°29' E 118°04'0 0.0
2018-Dec-09 03:00N 24°29' E 118°04'0 0.0
2018-Dec-09 02:30N 24°29' E 118°04'0 0.0
2018-Dec-09 02:00N 24°29' E 118°04'0 0.0
2018-Dec-09 01:30N 24°29' E 118°04'0 0.0
2018-Dec-09 01:00N 24°29' E 118°04'0 0.0
2018-Dec-09 00:30N 24°29' E 118°04'0 0.0
2018-Dec-09 00:00N 24°29' E 118°04'0 0.0
2018-Dec-08 23:30N 24°29' E 118°04'0 0.0
2018-Dec-08 23:00N 24°29' E 118°04'0 0.0
2018-Dec-08 22:30N 24°29' E 118°04'1 2.5
2018-Dec-08 22:00N 24°28' E 118°03'510.6
2018-Dec-08 21:31N 24°24' E 118°06'713.4
2018-Dec-08 21:00N 24°19' E 118°12'815.4
2018-Dec-08 20:30N 24°13' E 118°17'612.6
2018-Dec-08 20:00N 24°11' E 118°23'713.6
2018-Dec-08 19:30N 24°12' E 118°31'612.6
2018-Dec-08 19:00N 24°13' E 118°38'712.9
2018-Dec-08 18:28N 24°15' E 118°45'16115.7
2018-Dec-08 08:14N 25°22' E 121°26'615.8
2018-Dec-08 07:53N 25°23' E 121°32'1016.0
2018-Dec-08 07:16N 25°22' E 121°43'616.4
2018-Dec-08 06:56N 25°22' E 121°50'716.5
2018-Dec-08 06:29N 25°21' E 121°58'1016.6
2018-Dec-08 05:54N 25°19' E 122°08'716.5
2018-Dec-08 05:27N 25°18' E 122°16'1018.1
2018-Dec-08 04:56N 25°17' E 122°27'1017.4
2018-Dec-08 04:21N 25°17' E 122°38'30 0.6
2018-Dec-06 05:35N 25°20' E 122°05'320.6
2018-Dec-06 05:25N 25°20' E 122°01'1220.2
2018-Dec-06 04:49N 25°21' E 121°48'720.3
2018-Dec-06 04:28N 25°23' E 121°40'1020.0
2018-Dec-06 03:57N 25°23' E 121°29'1219.3
2018-Dec-06 03:20N 25°20' E 121°16'2318.8
2018-Dec-06 02:09N 25°14' E 120°52'318.5
2018-Dec-06 01:58N 25°13' E 120°48'13818.1
2018-Dec-05 18:21N 24°13' E 118°32'617.8
2018-Dec-05 18:00N 24°11' E 118°25'816.2
2018-Dec-05 17:30N 24°13' E 118°17'817.4
2018-Dec-05 17:01N 24°20' E 118°11'714.2
2018-Dec-05 16:31N 24°25' E 118°05'5 9.1
2018-Dec-05 16:00N 24°29' E 118°04'0 0.5
2018-Dec-05 15:30N 24°29' E 118°04'0 0.0
2018-Dec-05 15:00N 24°29' E 118°04'0 0.0
2018-Dec-05 14:30N 24°29' E 118°04'0 0.0
2018-Dec-05 14:00N 24°29' E 118°04'0 0.0
2018-Dec-05 13:30N 24°29' E 118°04'0 0.0
2018-Dec-05 13:00N 24°29' E 118°04'0 0.0
2018-Dec-05 12:30N 24°29' E 118°04'0 0.0
2018-Dec-05 12:00N 24°29' E 118°04'0 0.0
2018-Dec-05 11:30N 24°29' E 118°04'0 0.0
2018-Dec-05 11:00N 24°29' E 118°04'0 0.0
2018-Dec-05 10:30N 24°29' E 118°04'0 0.0
2018-Dec-05 10:00N 24°29' E 118°04'0 0.0
2018-Dec-05 09:30N 24°29' E 118°04'0 0.0
2018-Dec-05 09:00N 24°29' E 118°04'0 0.7
2018-Dec-05 08:30N 24°29' E 118°04'4 8.8
2018-Dec-05 08:01N 24°25' E 118°05'713.3
2018-Dec-05 07:30N 24°20' E 118°10'816.3
2018-Dec-05 07:00N 24°14' E 118°16'816.8
2018-Dec-05 06:30N 24°08' E 118°22'816.3
2018-Dec-05 05:59N 23°59' E 118°21'5517.1
2018-Dec-05 02:47N 23°16' E 117°45'616.8
2018-Dec-05 02:24N 23°11' E 117°40'68217.9
2018-Dec-03 12:17N 16°07' E 108°12'0 0.1
2018-Dec-03 11:07N 16°07' E 108°13'0 0.0
2018-Dec-03 10:55N 16°07' E 108°13'0 0.0
2018-Dec-03 10:07N 16°07' E 108°13'0 0.0
2018-Dec-03 09:43N 16°07' E 108°13'0 0.0
2018-Dec-03 04:11N 16°07' E 108°13'0 0.8
2018-Dec-03 03:58N 16°07' E 108°12'1 2.1
2018-Dec-03 03:30N 16°08' E 108°12'67817.5
2018-Dec-01 12:49N 23°07' E 117°38'619.7
2018-Dec-01 12:30N 23°11' E 117°43'1019.5
2018-Dec-01 12:00N 23°16' E 117°52'918.8
2018-Dec-01 11:31N 23°22' E 117°60'918.5
2018-Dec-01 11:00N 23°30' E 118°06'919.1
2018-Dec-01 10:31N 23°36' E 118°13'1019.1
2018-Dec-01 10:00N 23°45' E 118°17'1018.9
2018-Dec-01 09:27N 23°55' E 118°22'1017.7
2018-Dec-01 08:55N 24°04' E 118°22'817.2
2018-Dec-01 08:25N 24°12' E 118°19'716.7
2018-Dec-01 08:00N 24°17' E 118°13'714.8
2018-Dec-01 07:30N 24°23' E 118°08'612.3
2018-Dec-01 07:00N 24°27' E 118°03'3 6.0
2018-Dec-01 06:30N 24°29' E 118°04'0 0.0
2018-Dec-01 06:01N 24°29' E 118°04'0 0.0
2018-Dec-01 05:30N 24°29' E 118°04'0 0.0
2018-Dec-01 05:00N 24°29' E 118°04'0 0.0
2018-Dec-01 04:30N 24°29' E 118°04'0 0.0
2018-Dec-01 04:00N 24°29' E 118°04'0 0.0
2018-Dec-01 03:30N 24°29' E 118°04'0 0.0
2018-Dec-01 03:00N 24°29' E 118°04'0 0.0
2018-Dec-01 02:30N 24°29' E 118°04'0 0.0
2018-Dec-01 02:00N 24°29' E 118°04'0 0.0
2018-Dec-01 01:30N 24°29' E 118°04'0 0.0
2018-Dec-01 01:00N 24°29' E 118°04'0 0.0
2018-Dec-01 00:30N 24°29' E 118°04'0 0.0
2018-Dec-01 00:00N 24°29' E 118°04'0 0.0
2018-Nov-30 23:31N 24°29' E 118°04'0 0.0
2018-Nov-30 23:00N 24°29' E 118°04'0 0.0
2018-Nov-30 22:30N 24°29' E 118°04'2 4.1
2018-Nov-30 22:00N 24°28' E 118°03'611.6
2018-Nov-30 21:30N 24°23' E 118°07'714.1
2018-Nov-30 21:01N 24°18' E 118°12'815.0
2018-Nov-30 20:31N 24°13' E 118°18'714.1
2018-Nov-30 20:00N 24°11' E 118°26'714.4
2018-Nov-30 19:31N 24°12' E 118°33'714.1
2018-Nov-30 19:00N 24°13' E 118°41'714.3
2018-Nov-30 18:30N 24°15' E 118°49'814.3
2018-Nov-30 17:58N 24°18' E 118°56'913.9
2018-Nov-30 17:21N 24°23' E 119°04'613.6
2018-Nov-30 16:56N 24°25' E 119°10'13913.2
2018-Nov-30 06:23N 25°23' E 121°29'1120.0
2018-Nov-30 05:50N 25°23' E 121°41'919.3
2018-Nov-30 05:24N 25°23' E 121°51'819.4
2018-Nov-30 04:58N 25°21' E 122°00'1219.4
2018-Nov-30 04:21N 25°18' E 122°13'719.0
2018-Nov-30 04:00N 25°17' E 122°20'1018.6
2018-Nov-30 03:28N 25°17' E 122°31'  

Dump ship's entire track history